Time;durP1;ratioP1;P1;durP2;ratioP2;P2;SDS_P1;SDS_P2;PMS_P1;PMS_P2;Temp;Humidity;BMP_temperature;BMP_pressure;BME280_temperature;BME280_humidity;BME280_pressure;Samples;Min_cycle;Max_cycle;Signal;HPM_P1;HPM_P2
2021/12/04 00:01:55;;;;;;;10.63;5.37;;;;;;;2.28;54.19;99396.66;5014442;27;101462;-80
2021/12/04 00:04:29;;;;;;;12.33;6.10;;;;;;;2.23;54.27;99391.53;5009180;27;96830;-81
2021/12/04 00:06:54;;;;;;;9.23;5.27;;;;;;;2.17;54.40;99387.31;5038958;27;98890;-81
2021/12/04 00:09:21;;;;;;;9.80;5.20;;;;;;;2.17;54.47;99384.72;5038328;27;97514;-81
2021/12/04 00:11:53;;;;;;;17.47;7.13;;;;;;;2.20;54.12;99378.66;5038687;27;97903;-81
2021/12/04 00:14:19;;;;;;;10.85;5.30;;;;;;;2.23;54.29;99378.59;5021753;27;96734;-80
2021/12/04 00:16:45;;;;;;;13.03;5.47;;;;;;;2.15;54.14;99372.66;5031225;27;97353;-81
2021/12/04 00:19:11;;;;;;;11.67;6.40;;;;;;;2.10;53.96;99346.88;5037660;27;100986;-81
2021/12/04 00:21:37;;;;;;;12.40;6.13;;;;;;;2.23;53.97;99370.81;5037359;27;101114;-81
2021/12/04 00:24:03;;;;;;;12.30;6.10;;;;;;;2.17;54.55;99352.81;5037897;27;96950;-82
2021/12/04 00:26:28;;;;;;;9.30;5.10;;;;;;;2.07;54.01;99326.19;5039122;27;97234;-81
2021/12/04 00:28:54;;;;;;;13.30;6.87;;;;;;;2.16;54.39;99353.69;5037748;27;101192;-81
2021/12/04 00:31:19;;;;;;;8.23;5.40;;;;;;;2.07;54.27;99354.69;5036483;27;100137;-81
2021/12/04 00:33:46;;;;;;;8.20;4.80;;;;;;;2.10;55.02;99352.03;5044646;27;97453;-81
2021/12/04 00:49:53;;;;;;;8.30;4.67;;;;;;;2.14;54.53;99339.91;5028740;27;101166;-81
2021/12/04 00:52:18;;;;;;;8.97;5.80;;;;;;;2.09;55.12;99334.78;5037499;27;98675;-81
2021/12/04 00:54:45;;;;;;;10.40;5.43;;;;;;;1.97;55.88;99335.81;5027756;27;97469;-81
2021/12/04 00:57:12;;;;;;;12.17;6.00;;;;;;;1.92;56.54;99326.41;5011978;27;97545;-81
2021/12/04 00:59:37;;;;;;;9.03;6.00;;;;;;;1.95;56.12;99328.94;5041026;27;97560;-81
2021/12/04 01:02:03;;;;;;;14.27;6.23;;;;;;;1.79;56.73;99329.19;5012642;27;101334;-81
2021/12/04 01:04:29;;;;;;;13.83;7.10;;;;;;;1.57;57.35;99307.94;5033657;27;98814;-81
2021/12/04 01:06:54;;;;;;;11.83;6.40;;;;;;;1.47;57.81;99310.66;5034626;27;96764;-81
2021/12/04 01:09:23;;;;;;;12.63;7.23;;;;;;;1.46;58.21;99321.91;5039366;27;97497;-81
2021/12/04 01:11:49;;;;;;;11.57;6.13;;;;;;;1.32;58.00;99304.81;5050198;27;97532;-80
2021/12/04 01:14:17;;;;;;;12.50;6.10;;;;;;;1.39;58.45;99310.75;5040164;27;96803;-81
2021/12/04 01:16:43;;;;;;;10.67;5.93;;;;;;;1.39;58.15;99313.34;5039655;27;97591;-81
2021/12/04 01:19:09;;;;;;;9.47;5.93;;;;;;;1.40;58.01;99309.03;5039681;27;101087;-81
2021/12/04 01:21:35;;;;;;;10.03;5.80;;;;;;;1.33;58.09;99303.06;5024085;27;101134;-81
2021/12/04 01:24:01;;;;;;;11.30;5.73;;;;;;;1.30;57.93;99280.69;5020612;27;97104;-81
2021/12/04 01:26:26;;;;;;;10.27;5.50;;;;;;;1.43;57.76;99289.16;5035355;27;96969;-81
2021/12/04 01:28:52;;;;;;;12.90;5.17;;;;;;;1.29;57.73;99279.00;5036727;27;100679;-81
2021/12/04 01:31:18;;;;;;;8.23;4.63;;;;;;;1.49;57.28;99289.09;5039102;27;101383;-81
2021/12/04 01:33:44;;;;;;;8.80;5.23;;;;;;;1.40;57.46;99271.09;5026456;27;96703;-81
2021/12/04 01:36:09;;;;;;;8.70;4.67;;;;;;;1.49;57.74;99290.81;5031032;27;97088;-81
2021/12/04 01:38:36;;;;;;;8.70;5.17;;;;;;;1.50;57.46;99283.03;5036542;27;98040;-81
2021/12/04 01:41:02;;;;;;;11.10;5.47;;;;;;;1.43;57.28;99270.22;5039709;27;101122;-81
2021/12/04 01:43:28;;;;;;;9.47;5.07;;;;;;;1.48;56.88;99269.25;5031072;27;97405;-81
2021/12/04 01:45:55;;;;;;;9.23;4.90;;;;;;;1.49;57.29;99255.47;5036337;27;96908;-81
2021/12/04 01:48:20;;;;;;;7.70;4.30;;;;;;;1.54;57.16;99250.19;5047623;27;101427;-81
2021/12/04 01:50:46;;;;;;;12.37;4.97;;;;;;;1.60;57.11;99263.06;5022073;27;101386;-81
2021/12/04 01:53:12;;;;;;;8.23;4.40;;;;;;;1.62;56.87;99265.63;5042781;27;96963;-81
2021/12/04 01:55:39;;;;;;;6.67;4.10;;;;;;;1.62;57.77;99265.63;5026512;27;97741;-81
2021/12/04 01:58:05;;;;;;;9.17;5.00;;;;;;;1.47;57.30;99236.50;5039786;27;101211;-81
2021/12/04 02:00:34;;;;;;;8.77;4.70;;;;;;;1.64;57.55;99263.88;5040751;27;101252;-81
2021/12/04 02:03:03;;;;;;;7.63;4.30;;;;;;;1.52;57.46;99263.16;5035869;27;98645;-81
2021/12/04 02:05:28;;;;;;;6.17;4.60;;;;;;;1.46;57.62;99236.53;5017288;27;97342;-81
2021/12/04 02:07:54;;;;;;;8.30;4.33;;;;;;;1.45;57.52;99240.00;5038675;27;97936;-82
2021/12/04 02:10:20;;;;;;;9.67;4.97;;;;;;;1.43;57.38;99228.84;5034918;27;101506;-81
2021/12/04 02:12:46;;;;;;;7.80;4.50;;;;;;;1.59;57.21;99246.66;5057757;27;96737;-81
2021/12/04 02:15:13;;;;;;;9.93;5.17;;;;;;;1.64;57.19;99243.19;5039465;27;96869;-81
2021/12/04 02:17:39;;;;;;;9.33;4.40;;;;;;;1.64;57.13;99233.69;5031602;27;101670;-81
2021/12/04 02:20:16;;;;;;;7.83;4.70;;;;;;;1.64;57.07;99215.56;5029070;27;101072;-81
2021/12/04 02:22:42;;;;;;;7.73;4.77;;;;;;;1.70;56.68;99223.22;5049542;27;98607;-81
2021/12/04 02:25:09;;;;;;;8.17;5.10;;;;;;;1.66;56.80;99229.34;5027281;27;98658;-81
2021/12/04 02:27:35;;;;;;;10.07;4.87;;;;;;;1.79;56.64;99224.81;5028138;27;97563;-81
2021/12/04 02:30:06;;;;;;;6.10;3.73;;;;;;;1.62;56.81;99211.28;5038492;27;101351;-81
2021/12/04 02:32:32;;;;;;;7.43;4.17;;;;;;;1.74;56.67;99221.44;5041075;27;96805;-81
2021/12/04 02:34:58;;;;;;;7.87;4.70;;;;;;;1.74;56.62;99226.63;5037200;27;97365;-81
2021/12/04 02:37:24;;;;;;;9.30;4.57;;;;;;;1.75;56.41;99218.84;5030023;27;101396;-81
2021/12/04 02:39:57;;;;;;;7.50;4.47;;;;;;;1.82;56.52;99219.59;5010333;27;101051;-81
2021/12/04 02:42:27;;;;;;;10.63;4.27;;;;;;;1.67;56.26;99189.66;5012016;27;97377;-81
2021/12/04 02:44:53;;;;;;;8.90;5.87;;;;;;;1.72;56.09;99174.91;5027430;27;97052;-81
2021/12/04 02:47:19;;;;;;;7.47;4.40;;;;;;;1.75;56.04;99181.78;5043669;27;101890;-80
2021/12/04 02:49:44;;;;;;;7.37;4.10;;;;;;;1.90;56.22;99191.00;5056069;27;97330;-81
2021/12/04 02:52:11;;;;;;;8.87;3.87;;;;;;;1.91;56.68;99187.53;5040135;27;97122;-81
2021/12/04 02:54:37;;;;;;;7.63;3.97;;;;;;;1.98;56.07;99179.66;5038142;27;97103;-80
2021/12/04 02:57:05;;;;;;;8.90;4.83;;;;;;;1.90;56.33;99185.84;5026475;27;100178;-79
2021/12/04 02:59:33;;;;;;;10.97;3.87;;;;;;;1.91;56.00;99183.22;5043908;27;100316;-79
2021/12/04 03:01:59;;;;;;;8.37;4.43;;;;;;;1.95;56.36;99181.41;5026815;27;96560;-79
2021/12/04 03:04:27;;;;;;;9.20;4.37;;;;;;;1.93;56.00;99184.03;5043989;27;96691;-79
2021/12/04 03:06:52;;;;;;;11.50;4.73;;;;;;;1.97;55.97;99172.75;5044306;27;101117;-80
2021/12/04 03:09:18;;;;;;;7.80;4.03;;;;;;;1.98;55.79;99169.28;5011933;27;100321;-79
2021/12/04 03:11:44;;;;;;;7.93;4.10;;;;;;;1.96;55.71;99176.22;5045671;27;96645;-79
2021/12/04 03:14:10;;;;;;;9.47;3.97;;;;;;;1.99;55.81;99173.59;5027861;27;96938;-79
2021/12/04 03:16:37;;;;;;;5.77;3.23;;;;;;;1.98;55.74;99169.28;5010808;27;101434;-82
2021/12/04 03:19:04;;;;;;;8.50;3.47;;;;;;;2.09;55.55;99176.00;5010375;27;101347;-80
2021/12/04 03:21:32;;;;;;;7.43;3.57;;;;;;;2.10;55.17;99172.56;5044136;27;96625;-80
2021/12/04 03:24:01;;;;;;;5.00;3.20;;;;;;;2.08;55.10;99161.38;5043602;27;96735;-80
2021/12/04 03:26:27;;;;;;;11.03;4.07;;;;;;;2.02;55.69;99160.59;5042446;27;100337;-80
2021/12/04 03:28:54;;;;;;;6.17;3.47;;;;;;;2.15;55.01;99165.53;5044195;27;96602;-79
2021/12/04 03:42:02;;;;;;;6.97;3.40;;;;;;;2.20;55.29;99145.59;5043896;27;96697;-80
2021/12/04 03:44:28;;;;;;;6.60;3.20;;;;;;;2.24;54.97;99144.63;5040571;27;96852;-80
2021/12/04 03:46:53;;;;;;;5.80;3.20;;;;;;;2.26;55.06;99137.72;5026828;27;100700;-79
2021/12/04 03:49:19;;;;;;;7.27;3.53;;;;;;;2.20;54.78;99141.25;5025854;27;102121;-79
2021/12/04 03:51:45;;;;;;;8.33;3.47;;;;;;;2.14;55.27;99146.56;5024984;27;96642;-80
2021/12/04 03:54:10;;;;;;;6.80;3.60;;;;;;;2.22;55.41;99147.28;5026134;27;96871;-79
2021/12/04 03:56:36;;;;;;;7.07;3.40;;;;;;;2.16;55.45;99146.56;5025811;27;100075;-80
2021/12/04 03:59:03;;;;;;;7.47;3.53;;;;;;;2.21;55.35;99143.00;5015939;27;98588;-81
2021/12/04 04:01:29;;;;;;;6.00;3.03;;;;;;;2.20;54.95;99137.81;5046433;27;96415;-80
2021/12/04 04:03:55;;;;;;;6.90;3.10;;;;;;;2.16;55.43;99134.44;5029847;27;96564;-80
2021/12/04 04:06:20;;;;;;;6.07;3.10;;;;;;;2.12;55.06;99137.09;5063902;27;99917;-79
2021/12/04 04:08:46;;;;;;;4.93;3.30;;;;;;;2.25;54.97;99129.09;5050685;27;100170;-80
2021/12/04 04:11:12;;;;;;;5.60;2.87;;;;;;;2.23;55.13;99130.00;5048927;27;96292;-80
2021/12/04 04:13:41;;;;;;;8.90;3.33;;;;;;;2.17;55.17;99130.13;5038970;27;96858;-80
2021/12/04 04:16:07;;;;;;;6.93;3.73;;;;;;;2.17;55.24;99136.16;5034432;27;101143;-79
2021/12/04 04:18:33;;;;;;;5.33;3.10;;;;;;;2.19;55.21;99138.72;5033341;27;101320;-79
2021/12/04 04:20:59;;;;;;;6.80;3.17;;;;;;;2.16;55.15;99131.00;5015345;27;96928;-79
2021/12/04 04:23:25;;;;;;;5.33;2.90;;;;;;;2.20;55.03;99122.28;5031168;27;96799;-79
2021/12/04 04:25:50;;;;;;;4.20;2.67;;;;;;;2.15;55.23;99124.09;5046535;27;100905;-79
2021/12/04 04:28:16;;;;;;;6.43;4.03;;;;;;;2.28;55.04;99125.59;5046229;27;99698;-79
2021/12/04 04:30:42;;;;;;;5.63;3.03;;;;;;;2.17;54.68;99114.59;5046323;27;96725;-79
2021/12/04 04:33:10;;;;;;;7.17;3.30;;;;;;;2.20;54.90;99115.38;5046497;27;96792;-79
2021/12/04 04:35:36;;;;;;;8.53;3.57;;;;;;;2.20;54.90;99115.38;5029630;27;100137;-79
2021/12/04 05:00:13;;;;;;;6.43;3.23;;;;;;;2.13;54.50;99092.25;5031268;27;101011;-79
2021/12/04 05:13:10;;;;;;;6.97;2.95;;;;;;;2.00;54.66;99083.84;5045644;27;96739;-80
2021/12/04 05:15:55;;;;;;;8.10;3.53;;;;;;;1.99;54.89;99082.13;5047309;27;96659;-80
2021/12/04 05:21:03;;;;;;;6.17;3.00;;;;;;;1.93;54.67;99080.50;5047234;27;96670;-79
2021/12/04 05:23:33;;;;;;;4.73;3.10;;;;;;;1.95;54.98;99077.88;5049945;27;96662;-80
2021/12/04 05:26:00;;;;;;;4.57;2.60;;;;;;;1.97;54.58;99076.13;5032612;27;96475;-81
2021/12/04 05:28:26;;;;;;;5.50;3.17;;;;;;;1.96;54.40;99077.88;5016436;27;99786;-80
2021/12/04 05:30:51;;;;;;;6.23;2.70;;;;;;;1.96;54.18;99074.44;5035220;27;100473;-80
2021/12/04 05:33:17;;;;;;;7.27;3.20;;;;;;;2.04;54.04;99069.97;5039607;27;96526;-81
2021/12/04 05:35:47;;;;;;;5.67;3.77;;;;;;;2.05;53.61;99074.25;5044670;27;96912;-80
2021/12/04 05:38:15;;;;;;;4.50;3.20;;;;;;;2.03;53.82;99079.44;5058947;27;97485;-81
2021/12/04 05:40:40;;;;;;;5.87;3.00;;;;;;;1.97;53.92;99076.13;5055624;27;96468;-80
2021/12/04 05:43:06;;;;;;;6.47;3.27;;;;;;;1.98;53.67;99080.44;5037371;27;96605;-80
2021/12/04 05:45:38;;;;;;;6.17;3.73;;;;;;;2.06;53.34;99086.31;5042909;27;96971;-80
2021/12/04 05:48:15;;;;;;;6.78;3.45;;;;;;;1.99;53.41;99076.97;5057729;27;99765;-81
2021/12/04 05:55:55;;;;;;;6.27;2.97;;;;;;;2.04;53.42;99068.22;5028039;27;96861;-80
2021/12/04 05:58:26;;;;;;;6.70;3.60;;;;;;;2.05;53.19;99074.25;5045316;27;100416;-79
2021/12/04 06:00:53;;;;;;;7.45;3.28;;;;;;;2.10;52.64;99069.84;5011221;27;100255;-80
2021/12/04 06:03:18;;;;;;;5.50;3.40;;;;;;;2.15;52.86;99067.16;5043643;27;96594;-79
2021/12/04 06:05:44;;;;;;;9.57;3.73;;;;;;;2.27;52.20;99072.09;5026566;27;96820;-80
2021/12/04 06:08:10;;;;;;;7.40;3.87;;;;;;;2.21;52.43;99070.50;5026329;27;96937;-79
2021/12/04 06:10:36;;;;;;;8.67;4.53;;;;;;;2.25;52.45;99066.94;5042665;27;101956;-79
2021/12/04 06:13:01;;;;;;;12.03;5.50;;;;;;;2.32;52.26;99067.66;5044710;27;96652;-79
2021/12/04 06:15:27;;;;;;;9.67;5.17;;;;;;;2.32;51.87;99072.00;5043241;27;96908;-80
2021/12/04 06:17:54;;;;;;;10.17;3.90;;;;;;;2.27;52.21;99066.94;5042848;27;97606;-79
2021/12/04 06:23:05;;;;;;;5.97;3.57;;;;;;;2.20;52.09;99066.19;5029576;27;96686;-80
2021/12/04 06:25:31;;;;;;;7.03;3.53;;;;;;;2.15;52.96;99072.31;5045721;27;96804;-80
2021/12/04 06:27:56;;;;;;;7.60;3.60;;;;;;;2.03;53.46;99069.09;5045161;27;101355;-80
2021/12/04 06:30:24;;;;;;;6.33;3.10;;;;;;;2.10;52.87;99069.00;5043979;27;98527;-81
2021/12/04 06:32:52;;;;;;;7.73;3.87;;;;;;;2.08;53.58;99056.06;5046254;27;96682;-81
2021/12/04 06:35:19;;;;;;;7.13;3.93;;;;;;;2.10;53.30;99062.06;5045422;27;96843;-81
2021/12/04 06:37:45;;;;;;;7.57;3.70;;;;;;;2.18;53.92;99055.03;5027805;27;100367;-81
2021/12/04 06:40:13;;;;;;;7.20;3.33;;;;;;;2.15;53.42;99052.50;5044935;27;101506;-81
2021/12/04 06:42:40;;;;;;;8.60;4.37;;;;;;;2.15;54.24;99049.03;5027819;27;96532;-80
2021/12/04 06:45:06;;;;;;;10.77;5.20;;;;;;;2.29;53.56;99051.34;5011778;27;96736;-80
2021/12/04 06:47:33;;;;;;;10.07;4.73;;;;;;;2.12;54.19;99049.94;5028300;27;97584;-80
2021/12/04 06:50:05;;;;;;;8.37;4.23;;;;;;;2.08;54.13;99052.63;5028213;27;101688;-80
2021/12/04 06:52:31;;;;;;;9.20;5.30;;;;;;;2.07;54.09;99051.78;5046115;27;96600;-80
2021/12/04 06:54:59;;;;;;;8.47;4.27;;;;;;;2.00;54.58;99052.78;5025166;27;96851;-78
2021/12/04 06:57:44;;;;;;;10.37;5.00;;;;;;;1.89;54.32;99044.34;5023505;27;101023;-79
2021/12/04 07:00:11;;;;;;;10.10;5.33;;;;;;;1.95;54.62;99042.53;5028759;27;100147;-79
2021/12/04 07:02:37;;;;;;;8.50;4.40;;;;;;;1.89;54.66;99034.88;5030847;27;96598;-78
2021/12/04 07:05:04;;;;;;;10.13;5.00;;;;;;;1.88;54.51;99040.91;5045447;27;96509;-79
2021/12/04 07:07:29;;;;;;;8.90;4.97;;;;;;;1.93;54.20;99039.09;5024082;27;101285;-79
2021/12/04 07:09:55;;;;;;;9.63;4.70;;;;;;;1.86;54.81;99036.66;5023080;27;99918;-78
2021/12/04 07:12:20;;;;;;;10.33;5.57;;;;;;;1.81;54.60;99039.34;5023020;27;96767;-79
2021/12/04 07:14:46;;;;;;;8.77;5.00;;;;;;;1.78;54.53;99035.06;5040663;27;96684;-78
2021/12/04 07:17:12;;;;;;;8.67;5.20;;;;;;;1.81;54.77;99035.03;5039639;27;100326;-78
2021/12/04 07:19:37;;;;;;;10.87;5.10;;;;;;;1.79;54.34;99034.19;5022617;27;100700;-78
2021/12/04 07:22:03;;;;;;;7.97;4.93;;;;;;;1.89;54.91;99041.78;5040609;27;96628;-78
2021/12/04 07:24:31;;;;;;;12.07;5.57;;;;;;;1.99;54.23;99046.75;5039901;27;96773;-78
2021/12/04 07:26:57;;;;;;;12.77;5.83;;;;;;;1.85;54.54;99035.81;5023247;27;101317;-79
2021/12/04 07:29:23;;;;;;;14.63;5.93;;;;;;;1.97;54.57;99042.47;5022989;27;101689;-79
2021/12/04 07:31:48;;;;;;;10.23;5.90;;;;;;;2.02;54.18;99032.91;5023333;27;96685;-78
2021/12/04 07:34:14;;;;;;;8.10;5.23;;;;;;;2.08;54.41;99035.34;5040282;27;96969;-78
2021/12/04 07:36:39;;;;;;;11.63;6.07;;;;;;;2.06;54.91;99041.44;5039260;27;101118;-78
2021/12/04 07:39:05;;;;;;;8.43;5.40;;;;;;;2.10;53.95;99036.19;5022804;27;101086;-78
2021/12/04 07:41:31;;;;;;;8.37;5.13;;;;;;;2.15;53.97;99041.25;5039755;27;96520;-78
2021/12/04 07:43:57;;;;;;;8.20;5.63;;;;;;;2.17;54.39;99035.16;5040135;27;96522;-77
2021/12/04 07:46:23;;;;;;;10.90;5.50;;;;;;;2.23;54.36;99035.03;5040047;27;97750;-79
2021/12/04 07:48:49;;;;;;;8.87;5.40;;;;;;;2.32;53.61;99040.91;5023309;27;100946;-78
2021/12/04 07:51:17;;;;;;;10.83;5.77;;;;;;;2.30;54.00;99037.50;5039692;27;96903;-78
2021/12/04 07:53:46;;;;;;;10.40;5.23;;;;;;;2.25;53.99;99032.44;5040929;27;97173;-79
2021/12/04 07:56:16;;;;;;;9.80;5.80;;;;;;;2.39;53.67;99027.81;5025188;27;97677;-78
2021/12/04 07:58:45;;;;;;;7.67;4.90;;;;;;;2.41;53.98;99035.53;5044933;27;101559;-78
2021/12/04 08:01:11;;;;;;;6.90;4.60;;;;;;;2.50;53.06;99035.34;5045272;27;96520;-79
2021/12/04 08:03:37;;;;;;;7.97;5.13;;;;;;;2.38;53.54;99025.25;5024506;27;96816;-78
2021/12/04 08:06:03;;;;;;;9.63;5.63;;;;;;;2.48;53.08;99026.75;5024250;27;97719;-79
2021/12/04 08:08:29;;;;;;;13.40;5.03;;;;;;;2.46;53.16;99036.31;5023422;27;101374;-79
2021/12/04 08:10:54;;;;;;;7.47;4.53;;;;;;;2.38;52.57;99026.09;5023732;27;96620;-79
2021/12/04 08:13:21;;;;;;;8.40;4.60;;;;;;;2.38;52.65;99027.84;5023042;27;96798;-79
2021/12/04 08:15:46;;;;;;;8.50;4.93;;;;;;;2.39;52.49;99024.38;5039421;27;101221;-79
2021/12/04 08:18:12;;;;;;;10.33;5.40;;;;;;;2.36;52.62;99027.88;5023634;27;100966;-81
2021/12/04 08:20:38;;;;;;;5.93;3.93;;;;;;;2.48;52.07;99025.03;5023821;27;96555;-80
2021/12/04 08:23:05;;;;;;;6.70;4.03;;;;;;;2.47;52.06;99023.31;5040494;27;96874;-80
2021/12/04 08:25:31;;;;;;;7.37;4.70;;;;;;;2.54;51.58;99021.44;5039953;27;101459;-80
2021/12/04 08:27:59;;;;;;;8.10;5.20;;;;;;;2.55;51.35;99027.47;5044114;27;97515;-80
2021/12/04 08:30:26;;;;;;;8.97;4.90;;;;;;;2.47;51.54;99015.56;5057353;27;96502;-82
2021/12/04 08:32:54;;;;;;;10.23;4.23;;;;;;;2.55;51.19;99024.88;5065574;27;95950;-82
2021/12/04 08:35:23;;;;;;;7.03;4.00;;;;;;;2.58;50.23;99019.63;5373863;22;99764;-81
2021/12/04 08:37:49;;;;;;;8.43;4.13;;;;;;;2.69;50.30;99020.25;5184609;22;100710;-83
2021/12/04 08:40:18;;;;;;;9.00;4.37;;;;;;;2.54;50.02;99005.91;5399071;22;101029;-81
2021/12/04 08:42:46;;;;;;;8.70;4.07;;;;;;;2.60;50.65;99015.28;6051133;22;99492;-81
2021/12/04 08:45:14;;;;;;;6.30;3.97;;;;;;;2.67;49.91;99012.50;5392094;22;99715;-81
2021/12/04 08:47:40;;;;;;;6.63;3.17;;;;;;;2.69;49.62;99005.53;5126234;22;97114;-82
2021/12/04 09:20:43;;;;;;;4.80;2.90;;;;;;;3.28;45.73;99001.56;5719989;22;98895;-79
2021/12/04 10:16:06;;;;;;;7.70;4.40;;;;;;;3.45;45.07;98949.22;5589377;22;98814;-82
2021/12/04 10:21:45;;;;;;;9.90;4.83;;;;;;;3.50;44.77;98947.38;4908628;28;97298;-82
2021/12/04 10:24:38;;;;;;;7.67;4.70;;;;;;;3.51;44.74;98946.47;4894236;28;99679;-83
2021/12/04 10:32:58;;;;;;;11.80;5.00;;;;;;;3.60;44.83;98918.50;4918199;28;96440;-83
2021/12/04 10:35:24;;;;;;;15.17;6.57;;;;;;;3.50;45.43;98924.88;4884917;28;96876;-78
2021/12/04 10:37:59;;;;;;;12.03;6.73;;;;;;;3.48;46.48;98928.38;4874118;28;97401;-79
2021/12/04 10:40:37;;;;;;;11.60;6.70;;;;;;;3.45;46.82;98928.47;4873034;28;96704;-79
2021/12/04 10:43:04;;;;;;;11.33;5.73;;;;;;;3.47;47.08;98930.13;4868368;28;96820;-79
2021/12/04 10:45:35;;;;;;;15.73;6.30;;;;;;;3.38;47.67;98918.28;4867137;28;101999;-79
2021/12/04 10:48:08;;;;;;;44.70;17.37;;;;;;;3.36;48.12;98924.38;4862324;28;101092;-79
2021/12/04 10:50:58;;;;;;;219.27;73.40;;;;;;;3.29;48.68;98925.47;4900236;28;97160;-79
2021/12/04 10:53:33;;;;;;;149.63;48.20;;;;;;;3.29;49.15;98918.53;4898852;28;96869;-76
2021/12/04 12:14:06;;;;;;;21.03;9.63;;;;;;;3.59;51.77;98869.28;5090640;22;98673;-79
2021/12/04 12:16:37;;;;;;;27.17;12.95;;;;;;;3.61;51.32;98865.75;4943308;28;100984;-77
2021/12/04 12:19:25;;;;;;;25.43;11.47;;;;;;;3.63;51.05;98855.31;4945668;28;96630;-81
2021/12/04 12:21:56;;;;;;;26.17;12.43;;;;;;;3.67;51.62;98843.94;4928460;28;96713;-77
2021/12/04 12:38:00;;;;;;;27.17;12.32;;;;;;;3.77;50.71;98828.94;4950336;28;96615;-79
2021/12/04 12:40:28;;;;;;;25.48;11.05;;;;;;;3.79;50.73;98819.38;4961770;28;100006;-80
2021/12/04 12:42:53;;;;;;;23.03;10.77;;;;;;;3.84;50.32;98814.91;4941696;28;96594;-77
2021/12/04 12:45:24;;;;;;;30.47;11.70;;;;;;;3.89;50.62;98817.34;4920152;28;96863;-78
2021/12/04 12:47:53;;;;;;;20.30;10.83;;;;;;;3.91;50.47;98810.38;4940135;28;101043;-79
2021/12/04 12:50:31;;;;;;;22.93;10.23;;;;;;;3.88;50.45;98813.91;4933565;28;98454;-77
2021/12/04 12:53:02;;;;;;;23.03;10.07;;;;;;;3.83;50.42;98808.84;4954519;22;96879;-79
2021/12/04 12:55:32;;;;;;;24.17;11.20;;;;;;;3.83;50.56;98806.25;5002392;22;96976;-81
2021/12/04 13:17:44;;;;;;;17.70;9.93;;;;;;;4.03;51.38;98802.19;4978835;28;99241;-82
2021/12/04 13:20:13;;;;;;;19.87;10.83;;;;;;;3.91;51.16;98795.63;4948033;28;99808;-80
2021/12/04 13:44:29;;;;;;;23.13;11.93;;;;;;;3.53;53.28;98782.06;5568390;22;98798;-80
2021/12/04 14:40:08;;;;;;;36.70;16.13;;;;;;;3.53;55.56;98744.91;6057178;22;98867;31
2021/12/04 15:38:19;;;;;;;50.33;20.17;;;;;;;2.94;59.26;98764.75;5088628;23;99807;-82
2021/12/04 16:46:29;;;;;;;49.13;22.33;;;;;;;2.82;56.82;98777.19;5926158;23;99211;-80
2021/12/04 16:48:57;;;;;;;48.67;23.23;;;;;;;2.75;57.50;98778.25;4885062;28;100057;-80
2021/12/04 16:57:24;;;;;;;46.77;23.67;;;;;;;2.80;57.00;98776.41;4852982;29;97578;-79
2021/12/04 16:59:51;;;;;;;45.93;22.53;;;;;;;2.82;57.20;98774.59;4844715;29;98170;-80
2021/12/04 17:02:20;;;;;;;51.87;24.20;;;;;;;2.74;57.27;98777.41;4826827;29;96821;-80
2021/12/04 17:04:46;;;;;;;48.30;22.40;;;;;;;2.57;57.82;98777.00;4841854;29;97567;-80
2021/12/04 17:31:22;;;;;;;42.80;20.93;;;;;;;2.72;58.37;98746.34;4898350;28;97099;-79
2021/12/04 17:33:51;;;;;;;51.37;23.53;;;;;;;2.70;58.29;98748.13;4864653;28;97874;-79
2021/12/04 17:36:17;;;;;;;49.77;24.03;;;;;;;2.58;58.79;98742.41;4871355;28;97127;-79
2021/12/04 17:38:46;;;;;;;51.37;24.67;;;;;;;2.68;58.85;98742.16;4863838;28;98041;-80
2021/12/04 17:41:13;;;;;;;53.17;25.67;;;;;;;2.61;58.77;98738.00;4849213;28;100986;-79
2021/12/04 17:43:39;;;;;;;56.93;25.40;;;;;;;2.61;58.79;98738.00;4862502;28;96678;-80
2021/12/04 17:46:05;;;;;;;54.83;25.47;;;;;;;2.62;58.93;98731.94;4871103;28;96766;-79
2021/12/04 17:48:31;;;;;;;58.43;27.43;;;;;;;2.59;59.19;98742.41;4866092;28;101380;-79
2021/12/04 17:50:59;;;;;;;56.13;26.90;;;;;;;2.45;59.52;98739.31;4858846;28;97881;-79
2021/12/04 17:53:26;;;;;;;57.07;26.30;;;;;;;2.41;59.84;98737.69;4866299;28;96871;-79
2021/12/04 17:55:52;;;;;;;61.53;28.37;;;;;;;2.28;59.83;98742.34;4879291;28;96723;-79
2021/12/04 17:58:18;;;;;;;58.17;26.60;;;;;;;2.32;59.79;98743.09;4879331;28;98830;-81
2021/12/04 18:00:48;;;;;;;55.53;26.57;;;;;;;2.36;59.97;98739.56;4864703;28;101336;-78
2021/12/04 18:03:21;;;;;;;59.67;27.93;;;;;;;2.23;60.39;98732.09;4872038;28;96794;-85
2021/12/04 19:31:41;;;;;;;47.95;23.70;;;;;;;2.50;62.62;98727.06;5631742;23;98587;31
2021/12/04 20:21:18;;;;;;;49.78;23.50;;;;;;;2.22;64.11;98695.91;5086693;23;98077;-83
